Beachburg, Canada
Current Conditions -  °F | °C
As of 3:00 AM on Saturday 25 Oct 2014 (Local Time) from CYWA Reporting Station
Overcast Overcast  
Wind Chill: 41°   Ceiling: 2600
Heat Index: 41°   Visibility: 9mi
Dew Point: 34°   Wind: 0mph
Humidity: 76%   Direction: NA
Pressure: 29.79"   Gusts: NA
Location:  45.73°N, 76.85°W
Report Text: CYWA 250700Z AUTO 00000KT 9SM OVC026 05/01 A2979 RMK SLP092
Loading
Personal Weather Stations






























Interactive Weather Map
Tropical Storm Tracking
New forecast layout! Learn more

10-Day Weather Forecast

Advertisements
Track Severe Weather on mobile